sensor_id;sensor_type;location;lat;lon;timestamp;P1;durP1;ratioP1;P2;durP2;ratioP2
7941;SDS011;4016;50.758;7.150;2022-11-06T00:03:41;9.07;;;5.07;;
7941;SDS011;4016;50.758;7.150;2022-11-06T00:08:42;5.33;;;3.83;;
7941;SDS011;4016;50.758;7.150;2022-11-06T00:13:42;5.30;;;4.37;;
7941;SDS011;4016;50.758;7.150;2022-11-06T00:18:43;5.97;;;3.40;;
7941;SDS011;4016;50.758;7.150;2022-11-06T00:23:44;3.87;;;3.40;;
7941;SDS011;4016;50.758;7.150;2022-11-06T00:28:45;6.90;;;3.77;;
7941;SDS011;4016;50.758;7.150;2022-11-06T00:33:46;5.37;;;3.80;;
7941;SDS011;4016;50.758;7.150;2022-11-06T00:38:49;5.17;;;3.73;;
7941;SDS011;4016;50.758;7.150;2022-11-06T00:43:52;4.27;;;3.30;;
7941;SDS011;4016;50.758;7.150;2022-11-06T00:48:55;4.33;;;3.60;;
7941;SDS011;4016;50.758;7.150;2022-11-06T00:53:56;6.07;;;3.97;;
7941;SDS011;4016;50.758;7.150;2022-11-06T00:58:59;5.43;;;3.23;;
7941;SDS011;4016;50.758;7.150;2022-11-06T01:04:05;4.50;;;3.13;;
7941;SDS011;4016;50.758;7.150;2022-11-06T01:09:12;8.90;;;3.30;;
7941;SDS011;4016;50.758;7.150;2022-11-06T01:14:14;4.03;;;2.87;;
7941;SDS011;4016;50.758;7.150;2022-11-06T01:19:17;3.47;;;3.17;;
7941;SDS011;4016;50.758;7.150;2022-11-06T01:24:20;5.30;;;3.20;;
7941;SDS011;4016;50.758;7.150;2022-11-06T01:29:22;5.33;;;3.43;;
7941;SDS011;4016;50.758;7.150;2022-11-06T01:34:22;4.10;;;3.27;;
7941;SDS011;4016;50.758;7.150;2022-11-06T01:39:23;3.33;;;3.00;;
7941;SDS011;4016;50.758;7.150;2022-11-06T01:49:35;4.97;;;3.00;;
7941;SDS011;4016;50.758;7.150;2022-11-06T01:54:38;3.30;;;3.00;;
7941;SDS011;4016;50.758;7.150;2022-11-06T01:59:42;5.33;;;2.77;;
7941;SDS011;4016;50.758;7.150;2022-11-06T02:04:44;6.23;;;3.30;;
7941;SDS011;4016;50.758;7.150;2022-11-06T02:09:47;4.70;;;3.20;;
7941;SDS011;4016;50.758;7.150;2022-11-06T02:15:05;3.20;;;2.90;;
7941;SDS011;4016;50.758;7.150;2022-11-06T02:20:16;3.10;;;2.77;;
7941;SDS011;4016;50.758;7.150;2022-11-06T02:25:40;4.03;;;2.97;;
7941;SDS011;4016;50.758;7.150;2022-11-06T02:30:46;2.97;;;2.67;;
7941;SDS011;4016;50.758;7.150;2022-11-06T02:35:52;3.27;;;2.83;;
7941;SDS011;4016;50.758;7.150;2022-11-06T02:40:59;3.30;;;3.00;;
7941;SDS011;4016;50.758;7.150;2022-11-06T02:46:20;3.27;;;2.73;;
7941;SDS011;4016;50.758;7.150;2022-11-06T02:51:27;4.37;;;2.87;;
7941;SDS011;4016;50.758;7.150;2022-11-06T02:56:32;3.57;;;2.80;;
7941;SDS011;4016;50.758;7.150;2022-11-06T03:01:37;6.13;;;3.00;;
7941;SDS011;4016;50.758;7.150;2022-11-06T03:06:43;4.07;;;2.73;;
7941;SDS011;4016;50.758;7.150;2022-11-06T03:11:49;4.00;;;2.97;;
7941;SDS011;4016;50.758;7.150;2022-11-06T03:22:39;2.23;;;2.10;;
7941;SDS011;4016;50.758;7.150;2022-11-06T03:27:48;3.63;;;2.50;;
7941;SDS011;4016;50.758;7.150;2022-11-06T03:38:16;2.70;;;2.50;;
7941;SDS011;4016;50.758;7.150;2022-11-06T03:43:31;2.23;;;2.07;;
7941;SDS011;4016;50.758;7.150;2022-11-06T03:48:45;3.07;;;2.70;;
7941;SDS011;4016;50.758;7.150;2022-11-06T03:53:55;4.60;;;2.37;;
7941;SDS011;4016;50.758;7.150;2022-11-06T03:59:01;4.17;;;2.77;;
7941;SDS011;4016;50.758;7.150;2022-11-06T04:04:20;3.03;;;2.70;;
7941;SDS011;4016;50.758;7.150;2022-11-06T04:09:34;4.87;;;2.60;;
7941;SDS011;4016;50.758;7.150;2022-11-06T04:14:56;2.47;;;2.27;;
7941;SDS011;4016;50.758;7.150;2022-11-06T04:20:00;2.97;;;2.67;;
7941;SDS011;4016;50.758;7.150;2022-11-06T04:25:05;2.70;;;2.50;;
7941;SDS011;4016;50.758;7.150;2022-11-06T04:30:28;3.70;;;2.80;;
7941;SDS011;4016;50.758;7.150;2022-11-06T04:46:44;3.10;;;2.30;;
7941;SDS011;4016;50.758;7.150;2022-11-06T04:51:51;3.27;;;2.27;;
7941;SDS011;4016;50.758;7.150;2022-11-06T04:56:55;2.57;;;2.37;;
7941;SDS011;4016;50.758;7.150;2022-11-06T05:01:57;3.27;;;2.20;;
7941;SDS011;4016;50.758;7.150;2022-11-06T05:06:58;3.20;;;2.30;;
7941;SDS011;4016;50.758;7.150;2022-11-06T05:11:58;4.47;;;2.33;;
7941;SDS011;4016;50.758;7.150;2022-11-06T05:16:59;1.83;;;1.70;;
7941;SDS011;4016;50.758;7.150;2022-11-06T05:21:59;2.30;;;2.10;;
7941;SDS011;4016;50.758;7.150;2022-11-06T05:27:18;2.20;;;2.03;;
7941;SDS011;4016;50.758;7.150;2022-11-06T05:32:18;3.53;;;2.60;;
7941;SDS011;4016;50.758;7.150;2022-11-06T05:37:19;2.23;;;2.03;;
7941;SDS011;4016;50.758;7.150;2022-11-06T05:42:19;4.03;;;2.43;;
7941;SDS011;4016;50.758;7.150;2022-11-06T05:47:20;2.37;;;2.10;;
7941;SDS011;4016;50.758;7.150;2022-11-06T05:52:20;3.43;;;1.80;;
7941;SDS011;4016;50.758;7.150;2022-11-06T05:57:21;2.97;;;1.97;;
7941;SDS011;4016;50.758;7.150;2022-11-06T06:02:21;2.20;;;1.93;;
7941;SDS011;4016;50.758;7.150;2022-11-06T06:07:22;3.10;;;2.63;;
7941;SDS011;4016;50.758;7.150;2022-11-06T06:12:22;3.00;;;2.57;;
7941;SDS011;4016;50.758;7.150;2022-11-06T06:17:25;3.10;;;2.37;;
7941;SDS011;4016;50.758;7.150;2022-11-06T06:22:26;3.23;;;2.37;;
7941;SDS011;4016;50.758;7.150;2022-11-06T06:27:26;4.50;;;2.60;;
7941;SDS011;4016;50.758;7.150;2022-11-06T06:32:27;2.73;;;2.53;;
7941;SDS011;4016;50.758;7.150;2022-11-06T06:37:27;2.57;;;2.20;;
7941;SDS011;4016;50.758;7.150;2022-11-06T06:42:28;3.10;;;1.97;;
7941;SDS011;4016;50.758;7.150;2022-11-06T06:47:28;3.07;;;1.90;;
7941;SDS011;4016;50.758;7.150;2022-11-06T06:52:28;2.53;;;2.20;;
7941;SDS011;4016;50.758;7.150;2022-11-06T06:57:29;2.37;;;2.17;;
7941;SDS011;4016;50.758;7.150;2022-11-06T07:02:29;2.93;;;2.23;;
7941;SDS011;4016;50.758;7.150;2022-11-06T07:07:30;2.77;;;2.50;;
7941;SDS011;4016;50.758;7.150;2022-11-06T07:12:31;2.83;;;2.43;;
7941;SDS011;4016;50.758;7.150;2022-11-06T07:17:31;2.80;;;2.53;;
7941;SDS011;4016;50.758;7.150;2022-11-06T07:22:31;4.77;;;2.50;;
7941;SDS011;4016;50.758;7.150;2022-11-06T07:27:32;2.83;;;2.63;;
7941;SDS011;4016;50.758;7.150;2022-11-06T07:32:32;5.30;;;2.90;;
7941;SDS011;4016;50.758;7.150;2022-11-06T07:37:34;2.60;;;2.40;;
7941;SDS011;4016;50.758;7.150;2022-11-06T07:42:34;2.87;;;2.60;;
7941;SDS011;4016;50.758;7.150;2022-11-06T07:47:35;2.80;;;2.60;;
7941;SDS011;4016;50.758;7.150;2022-11-06T07:52:35;6.50;;;2.93;;
7941;SDS011;4016;50.758;7.150;2022-11-06T07:57:35;3.60;;;2.80;;
7941;SDS011;4016;50.758;7.150;2022-11-06T08:02:36;5.70;;;2.93;;
7941;SDS011;4016;50.758;7.150;2022-11-06T08:07:36;5.87;;;2.90;;
7941;SDS011;4016;50.758;7.150;2022-11-06T08:12:37;3.43;;;2.50;;
7941;SDS011;4016;50.758;7.150;2022-11-06T08:17:37;6.27;;;3.00;;
7941;SDS011;4016;50.758;7.150;2022-11-06T08:22:37;5.00;;;2.57;;
7941;SDS011;4016;50.758;7.150;2022-11-06T08:27:38;4.43;;;2.80;;
7941;SDS011;4016;50.758;7.150;2022-11-06T08:32:38;4.60;;;2.37;;
7941;SDS011;4016;50.758;7.150;2022-11-06T08:37:39;2.87;;;2.43;;
7941;SDS011;4016;50.758;7.150;2022-11-06T08:42:39;2.60;;;2.40;;
7941;SDS011;4016;50.758;7.150;2022-11-06T08:47:40;5.60;;;3.00;;
7941;SDS011;4016;50.758;7.150;2022-11-06T08:52:40;4.27;;;2.70;;
7941;SDS011;4016;50.758;7.150;2022-11-06T08:57:40;4.63;;;3.00;;
7941;SDS011;4016;50.758;7.150;2022-11-06T09:02:41;6.33;;;3.47;;
7941;SDS011;4016;50.758;7.150;2022-11-06T09:07:41;3.30;;;2.60;;
7941;SDS011;4016;50.758;7.150;2022-11-06T09:12:41;4.40;;;3.03;;
7941;SDS011;4016;50.758;7.150;2022-11-06T09:17:43;3.10;;;2.80;;
7941;SDS011;4016;50.758;7.150;2022-11-06T09:22:45;3.93;;;3.10;;
7941;SDS011;4016;50.758;7.150;2022-11-06T09:27:47;4.03;;;3.03;;
7941;SDS011;4016;50.758;7.150;2022-11-06T09:32:50;4.40;;;2.80;;
7941;SDS011;4016;50.758;7.150;2022-11-06T09:37:59;6.57;;;3.03;;
7941;SDS011;4016;50.758;7.150;2022-11-06T09:48:41;5.50;;;2.93;;
7941;SDS011;4016;50.758;7.150;2022-11-06T09:53:50;3.00;;;2.70;;
7941;SDS011;4016;50.758;7.150;2022-11-06T09:59:30;3.73;;;2.80;;
7941;SDS011;4016;50.758;7.150;2022-11-06T10:04:48;3.77;;;2.83;;
7941;SDS011;4016;50.758;7.150;2022-11-06T10:10:05;6.10;;;2.93;;
7941;SDS011;4016;50.758;7.150;2022-11-06T10:15:18;2.90;;;2.60;;
7941;SDS011;4016;50.758;7.150;2022-11-06T10:20:28;3.37;;;3.00;;
7941;SDS011;4016;50.758;7.150;2022-11-06T10:30:57;3.13;;;2.83;;
7941;SDS011;4016;50.758;7.150;2022-11-06T10:36:05;3.10;;;2.60;;
7941;SDS011;4016;50.758;7.150;2022-11-06T10:41:20;3.67;;;2.60;;
7941;SDS011;4016;50.758;7.150;2022-11-06T10:51:49;3.93;;;2.80;;
7941;SDS011;4016;50.758;7.150;2022-11-06T11:02:24;5.17;;;2.97;;
7941;SDS011;4016;50.758;7.150;2022-11-06T11:07:27;3.67;;;2.97;;
7941;SDS011;4016;50.758;7.150;2022-11-06T11:12:30;3.30;;;2.40;;
7941;SDS011;4016;50.758;7.150;2022-11-06T11:17:31;4.53;;;2.87;;
7941;SDS011;4016;50.758;7.150;2022-11-06T11:22:32;3.73;;;3.00;;
7941;SDS011;4016;50.758;7.150;2022-11-06T11:27:36;2.83;;;2.63;;
7941;SDS011;4016;50.758;7.150;2022-11-06T11:32:42;2.87;;;2.33;;
7941;SDS011;4016;50.758;7.150;2022-11-06T11:37:43;3.10;;;2.60;;
7941;SDS011;4016;50.758;7.150;2022-11-06T11:42:44;2.73;;;2.40;;
7941;SDS011;4016;50.758;7.150;2022-11-06T11:47:45;4.87;;;2.80;;
7941;SDS011;4016;50.758;7.150;2022-11-06T11:52:51;2.70;;;2.50;;
7941;SDS011;4016;50.758;7.150;2022-11-06T11:57:58;2.50;;;2.23;;
7941;SDS011;4016;50.758;7.150;2022-11-06T12:03:03;2.60;;;2.40;;
7941;SDS011;4016;50.758;7.150;2022-11-06T12:08:11;3.43;;;2.37;;
7941;SDS011;4016;50.758;7.150;2022-11-06T12:13:21;3.20;;;2.60;;
7941;SDS011;4016;50.758;7.150;2022-11-06T12:18:28;3.60;;;2.30;;
7941;SDS011;4016;50.758;7.150;2022-11-06T12:28:42;3.53;;;2.10;;
7941;SDS011;4016;50.758;7.150;2022-11-06T12:33:45;3.73;;;2.33;;
7941;SDS011;4016;50.758;7.150;2022-11-06T12:38:53;1.90;;;1.80;;
7941;SDS011;4016;50.758;7.150;2022-11-06T12:44:00;2.20;;;2.00;;
7941;SDS011;4016;50.758;7.150;2022-11-06T12:59:49;2.47;;;2.07;;
7941;SDS011;4016;50.758;7.150;2022-11-06T13:10:31;2.77;;;1.97;;
7941;SDS011;4016;50.758;7.150;2022-11-06T13:15:50;4.47;;;2.00;;
7941;SDS011;4016;50.758;7.150;2022-11-06T13:21:09;1.90;;;1.43;;
7941;SDS011;4016;50.758;7.150;2022-11-06T13:32:12;3.47;;;1.97;;
7941;SDS011;4016;50.758;7.150;2022-11-06T13:36:57;1.50;;;1.40;;
7941;SDS011;4016;50.758;7.150;2022-11-06T13:41:59;1.63;;;1.53;;
7941;SDS011;4016;50.758;7.150;2022-11-06T13:52:08;1.30;;;1.23;;
7941;SDS011;4016;50.758;7.150;2022-11-06T13:57:23;1.87;;;1.77;;
7941;SDS011;4016;50.758;7.150;2022-11-06T14:08:39;2.53;;;1.93;;
7941;SDS011;4016;50.758;7.150;2022-11-06T14:13:58;4.67;;;1.80;;
7941;SDS011;4016;50.758;7.150;2022-11-06T14:19:00;1.70;;;1.60;;
7941;SDS011;4016;50.758;7.150;2022-11-06T14:24:13;1.70;;;1.60;;
7941;SDS011;4016;50.758;7.150;2022-11-06T14:34:30;2.10;;;1.47;;
7941;SDS011;4016;50.758;7.150;2022-11-06T14:40:17;1.47;;;1.37;;
7941;SDS011;4016;50.758;7.150;2022-11-06T14:44:56;2.60;;;1.97;;
7941;SDS011;4016;50.758;7.150;2022-11-06T14:50:34;2.17;;;1.97;;
7941;SDS011;4016;50.758;7.150;2022-11-06T15:21:42;3.40;;;2.53;;
7941;SDS011;4016;50.758;7.150;2022-11-06T15:26:47;2.53;;;2.23;;
7941;SDS011;4016;50.758;7.150;2022-11-06T15:31:50;2.93;;;2.50;;
7941;SDS011;4016;50.758;7.150;2022-11-06T15:37:01;3.93;;;2.70;;
7941;SDS011;4016;50.758;7.150;2022-11-06T15:42:09;2.67;;;2.47;;
7941;SDS011;4016;50.758;7.150;2022-11-06T15:47:22;3.87;;;2.60;;
7941;SDS011;4016;50.758;7.150;2022-11-06T15:52:24;2.67;;;2.47;;
7941;SDS011;4016;50.758;7.150;2022-11-06T15:57:25;3.23;;;2.73;;
7941;SDS011;4016;50.758;7.150;2022-11-06T16:02:27;3.17;;;2.83;;
7941;SDS011;4016;50.758;7.150;2022-11-06T16:07:28;2.77;;;2.33;;
7941;SDS011;4016;50.758;7.150;2022-11-06T16:12:29;2.70;;;2.50;;
7941;SDS011;4016;50.758;7.150;2022-11-06T16:17:29;3.57;;;2.13;;
7941;SDS011;4016;50.758;7.150;2022-11-06T16:22:30;3.70;;;3.03;;
7941;SDS011;4016;50.758;7.150;2022-11-06T16:27:33;2.87;;;2.50;;
7941;SDS011;4016;50.758;7.150;2022-11-06T16:32:37;2.87;;;2.57;;
7941;SDS011;4016;50.758;7.150;2022-11-06T16:37:39;3.23;;;2.60;;
7941;SDS011;4016;50.758;7.150;2022-11-06T16:42:39;4.03;;;3.30;;
7941;SDS011;4016;50.758;7.150;2022-11-06T16:53:07;3.40;;;3.10;;
7941;SDS011;4016;50.758;7.150;2022-11-06T16:58:12;4.30;;;3.87;;
7941;SDS011;4016;50.758;7.150;2022-11-06T17:03:19;12.83;;;7.20;;
7941;SDS011;4016;50.758;7.150;2022-11-06T17:13:23;14.10;;;7.67;;
7941;SDS011;4016;50.758;7.150;2022-11-06T17:18:31;19.07;;;9.30;;
7941;SDS011;4016;50.758;7.150;2022-11-06T17:23:33;12.37;;;6.73;;
7941;SDS011;4016;50.758;7.150;2022-11-06T17:28:33;9.23;;;5.03;;
7941;SDS011;4016;50.758;7.150;2022-11-06T17:33:34;3.87;;;3.47;;
7941;SDS011;4016;50.758;7.150;2022-11-06T17:38:34;4.13;;;3.00;;
7941;SDS011;4016;50.758;7.150;2022-11-06T17:43:35;3.23;;;2.67;;
7941;SDS011;4016;50.758;7.150;2022-11-06T17:48:35;4.47;;;3.00;;
7941;SDS011;4016;50.758;7.150;2022-11-06T17:53:36;5.13;;;3.60;;
7941;SDS011;4016;50.758;7.150;2022-11-06T17:58:36;4.83;;;4.27;;
7941;SDS011;4016;50.758;7.150;2022-11-06T18:03:38;4.10;;;3.70;;
7941;SDS011;4016;50.758;7.150;2022-11-06T18:08:43;3.60;;;3.23;;
7941;SDS011;4016;50.758;7.150;2022-11-06T18:13:44;5.90;;;3.67;;
7941;SDS011;4016;50.758;7.150;2022-11-06T18:18:44;3.90;;;3.50;;
7941;SDS011;4016;50.758;7.150;2022-11-06T18:23:44;5.57;;;3.83;;
7941;SDS011;4016;50.758;7.150;2022-11-06T18:28:45;5.23;;;4.30;;
7941;SDS011;4016;50.758;7.150;2022-11-06T18:33:45;4.50;;;3.80;;
7941;SDS011;4016;50.758;7.150;2022-11-06T18:38:46;3.80;;;3.30;;
7941;SDS011;4016;50.758;7.150;2022-11-06T18:43:46;4.13;;;3.17;;
7941;SDS011;4016;50.758;7.150;2022-11-06T18:48:47;3.40;;;3.00;;
7941;SDS011;4016;50.758;7.150;2022-11-06T18:53:47;5.07;;;3.50;;
7941;SDS011;4016;50.758;7.150;2022-11-06T18:58:49;3.93;;;3.10;;
7941;SDS011;4016;50.758;7.150;2022-11-06T19:03:49;4.40;;;3.40;;
7941;SDS011;4016;50.758;7.150;2022-11-06T19:08:50;3.47;;;3.17;;
7941;SDS011;4016;50.758;7.150;2022-11-06T19:13:50;3.30;;;2.80;;
7941;SDS011;4016;50.758;7.150;2022-11-06T19:18:51;3.37;;;2.93;;
7941;SDS011;4016;50.758;7.150;2022-11-06T19:23:51;2.53;;;2.33;;
7941;SDS011;4016;50.758;7.150;2022-11-06T19:28:51;4.07;;;2.53;;
7941;SDS011;4016;50.758;7.150;2022-11-06T19:34:02;3.23;;;2.73;;
7941;SDS011;4016;50.758;7.150;2022-11-06T19:39:04;3.70;;;2.77;;
7941;SDS011;4016;50.758;7.150;2022-11-06T19:44:06;3.20;;;2.63;;
7941;SDS011;4016;50.758;7.150;2022-11-06T19:49:08;2.43;;;2.23;;
7941;SDS011;4016;50.758;7.150;2022-11-06T19:54:09;2.97;;;2.63;;
7941;SDS011;4016;50.758;7.150;2022-11-06T19:59:10;2.87;;;2.47;;
7941;SDS011;4016;50.758;7.150;2022-11-06T20:04:11;2.37;;;2.17;;
7941;SDS011;4016;50.758;7.150;2022-11-06T20:09:11;2.40;;;2.20;;
7941;SDS011;4016;50.758;7.150;2022-11-06T20:14:11;3.17;;;2.30;;
7941;SDS011;4016;50.758;7.150;2022-11-06T20:19:13;4.03;;;2.20;;
7941;SDS011;4016;50.758;7.150;2022-11-06T20:24:13;4.20;;;2.60;;
7941;SDS011;4016;50.758;7.150;2022-11-06T20:29:14;2.30;;;2.03;;
7941;SDS011;4016;50.758;7.150;2022-11-06T20:34:14;2.50;;;1.97;;
7941;SDS011;4016;50.758;7.150;2022-11-06T20:39:15;3.23;;;2.40;;
7941;SDS011;4016;50.758;7.150;2022-11-06T20:44:15;3.37;;;2.53;;
7941;SDS011;4016;50.758;7.150;2022-11-06T20:49:16;3.60;;;2.23;;
7941;SDS011;4016;50.758;7.150;2022-11-06T20:54:16;3.63;;;2.43;;
7941;SDS011;4016;50.758;7.150;2022-11-06T20:59:16;3.50;;;2.60;;
7941;SDS011;4016;50.758;7.150;2022-11-06T21:04:17;2.53;;;2.33;;
7941;SDS011;4016;50.758;7.150;2022-11-06T21:09:17;2.73;;;2.53;;
7941;SDS011;4016;50.758;7.150;2022-11-06T21:14:18;3.20;;;2.63;;
7941;SDS011;4016;50.758;7.150;2022-11-06T21:19:18;4.23;;;2.70;;
7941;SDS011;4016;50.758;7.150;2022-11-06T21:24:19;2.90;;;2.60;;
7941;SDS011;4016;50.758;7.150;2022-11-06T21:29:19;4.10;;;2.53;;
7941;SDS011;4016;50.758;7.150;2022-11-06T21:34:20;3.47;;;2.63;;
7941;SDS011;4016;50.758;7.150;2022-11-06T21:39:21;2.63;;;2.43;;
7941;SDS011;4016;50.758;7.150;2022-11-06T21:44:21;3.17;;;2.87;;
7941;SDS011;4016;50.758;7.150;2022-11-06T21:49:22;2.13;;;1.93;;
7941;SDS011;4016;50.758;7.150;2022-11-06T21:54:22;2.40;;;2.20;;
7941;SDS011;4016;50.758;7.150;2022-11-06T21:59:41;2.87;;;2.10;;
7941;SDS011;4016;50.758;7.150;2022-11-06T22:04:41;2.03;;;1.93;;
7941;SDS011;4016;50.758;7.150;2022-11-06T22:09:42;3.77;;;2.37;;
7941;SDS011;4016;50.758;7.150;2022-11-06T22:14:42;2.53;;;2.20;;
7941;SDS011;4016;50.758;7.150;2022-11-06T22:19:42;2.30;;;2.10;;
7941;SDS011;4016;50.758;7.150;2022-11-06T22:24:44;3.97;;;2.63;;
7941;SDS011;4016;50.758;7.150;2022-11-06T22:29:47;2.33;;;2.20;;
7941;SDS011;4016;50.758;7.150;2022-11-06T22:34:47;2.17;;;1.93;;
7941;SDS011;4016;50.758;7.150;2022-11-06T22:39:47;2.97;;;2.20;;
7941;SDS011;4016;50.758;7.150;2022-11-06T22:44:48;4.07;;;2.30;;
7941;SDS011;4016;50.758;7.150;2022-11-06T22:49:48;2.80;;;2.00;;
7941;SDS011;4016;50.758;7.150;2022-11-06T22:54:48;3.23;;;2.20;;
7941;SDS011;4016;50.758;7.150;2022-11-06T22:59:49;2.33;;;2.13;;
7941;SDS011;4016;50.758;7.150;2022-11-06T23:04:49;2.20;;;2.00;;
7941;SDS011;4016;50.758;7.150;2022-11-06T23:09:50;3.30;;;2.47;;
7941;SDS011;4016;50.758;7.150;2022-11-06T23:14:50;3.13;;;2.47;;
7941;SDS011;4016;50.758;7.150;2022-11-06T23:19:51;1.67;;;1.57;;
7941;SDS011;4016;50.758;7.150;2022-11-06T23:24:53;2.13;;;1.97;;
7941;SDS011;4016;50.758;7.150;2022-11-06T23:29:55;2.73;;;2.00;;
7941;SDS011;4016;50.758;7.150;2022-11-06T23:34:59;2.27;;;1.77;;
7941;SDS011;4016;50.758;7.150;2022-11-06T23:39:59;1.80;;;1.67;;
7941;SDS011;4016;50.758;7.150;2022-11-06T23:45:00;1.83;;;1.73;;
7941;SDS011;4016;50.758;7.150;2022-11-06T23:50:19;2.67;;;1.80;;
7941;SDS011;4016;50.758;7.150;2022-11-06T23:55:19;1.80;;;1.70;;
